createdAt,value
2018-12-27T00:01:50.255Z,4.70
2018-12-27T00:04:21.270Z,4.70
2018-12-27T00:06:52.297Z,4.70
2018-12-27T00:09:23.330Z,4.70
2018-12-27T00:11:54.602Z,4.70
2018-12-27T00:14:25.367Z,4.70
2018-12-27T00:16:57.691Z,4.70
2018-12-27T00:19:28.459Z,4.70
2018-12-27T00:21:59.573Z,4.60
2018-12-27T00:24:30.879Z,4.60
2018-12-27T00:27:01.665Z,4.60
2018-12-27T00:29:32.668Z,4.60
2018-12-27T00:32:04.391Z,4.50
2018-12-27T00:34:35.635Z,4.50
2018-12-27T00:37:07.073Z,4.40
2018-12-27T00:39:38.544Z,4.40
2018-12-27T00:42:09.479Z,4.40
2018-12-27T00:44:40.631Z,4.40
2018-12-27T00:47:11.838Z,4.40
2018-12-27T00:49:42.768Z,4.40
2018-12-27T00:52:13.707Z,4.30
2018-12-27T00:54:44.384Z,4.30
2018-12-27T00:57:15.339Z,4.20
2018-12-27T00:59:46.503Z,4.20
2018-12-27T01:02:17.719Z,4.10
2018-12-27T01:04:49.419Z,4.10
2018-12-27T01:07:20.587Z,4.10
2018-12-27T01:09:51.516Z,4.10
2018-12-27T01:12:22.730Z,4.10
2018-12-27T01:14:53.647Z,4.10
2018-12-27T01:17:24.895Z,4.10
2018-12-27T01:19:56.069Z,4.00
2018-12-27T01:22:27.774Z,4.00
2018-12-27T01:24:58.872Z,3.90
2018-12-27T01:27:30.380Z,3.90
2018-12-27T01:30:01.817Z,3.80
2018-12-27T01:32:33.179Z,3.80
2018-12-27T01:35:04.335Z,3.70
2018-12-27T01:37:35.703Z,3.70
2018-12-27T01:40:06.911Z,3.70
2018-12-27T01:42:37.844Z,3.60
2018-12-27T01:45:09.049Z,3.60
2018-12-27T01:47:41.027Z,3.50
2018-12-27T01:50:12.256Z,3.50
2018-12-27T01:52:43.479Z,3.40
2018-12-27T01:55:14.413Z,3.50
2018-12-27T01:57:45.687Z,3.40
2018-12-27T02:00:16.891Z,3.40
2018-12-27T02:02:48.607Z,3.40
2018-12-27T02:05:19.543Z,3.40
2018-12-27T02:07:50.471Z,3.30
2018-12-27T02:10:22.092Z,3.30
2018-12-27T02:12:53.596Z,3.30
2018-12-27T02:15:24.851Z,3.30
2018-12-27T02:17:56.024Z,3.20
2018-12-27T02:20:27.187Z,3.20
2018-12-27T02:22:58.203Z,3.20
2018-12-27T02:25:29.147Z,3.10
2018-12-27T02:28:01.321Z,3.10
2018-12-27T02:30:32.507Z,3.10
2018-12-27T02:33:04.149Z,3.00
2018-12-27T02:35:35.608Z,3.00
2018-12-27T02:38:06.352Z,3.00
2018-12-27T02:40:37.107Z,3.00
2018-12-27T02:43:08.429Z,2.90
2018-12-27T02:45:39.595Z,2.90
2018-12-27T02:48:10.596Z,2.90
2018-12-27T02:50:41.611Z,2.80
2018-12-27T02:53:13.320Z,2.80
2018-12-27T02:55:44.251Z,2.80
2018-12-27T02:58:15.201Z,2.80
2018-12-27T03:00:46.379Z,2.80
2018-12-27T03:03:17.401Z,2.80
2018-12-27T03:05:48.079Z,2.80
2018-12-27T03:08:19.313Z,2.80
2018-12-27T03:10:51.084Z,2.90
2018-12-27T03:13:23.735Z,2.90
2018-12-27T03:15:54.671Z,2.90
2018-12-27T03:18:25.871Z,2.90
2018-12-27T03:20:57.079Z,2.90
2018-12-27T03:23:28.171Z,2.90
2018-12-27T03:25:59.325Z,2.90
2018-12-27T03:28:30.608Z,2.90
2018-12-27T03:31:02.270Z,2.90
2018-12-27T03:33:34.199Z,2.90
2018-12-27T03:36:05.683Z,3.00
2018-12-27T03:38:37.120Z,3.00
2018-12-27T03:41:08.091Z,3.00
2018-12-27T03:43:39.857Z,3.00
2018-12-27T03:46:11.831Z,3.00
2018-12-27T03:48:42.531Z,3.00
2018-12-27T03:51:14.160Z,3.00
2018-12-27T03:53:44.855Z,3.00
2018-12-27T03:56:16.482Z,3.00
2018-12-27T03:58:47.559Z,3.00
2018-12-27T04:01:19.087Z,3.00
2018-12-27T04:03:50.370Z,3.00
2018-12-27T04:06:21.375Z,3.00
2018-12-27T04:08:53.295Z,3.00
2018-12-27T04:11:25.467Z,3.00
2018-12-27T04:13:56.911Z,3.00
2018-12-27T04:16:27.680Z,3.00
2018-12-27T04:18:58.468Z,3.00
2018-12-27T04:21:29.562Z,3.00
2018-12-27T04:24:00.491Z,2.90
2018-12-27T04:26:31.757Z,2.90
2018-12-27T04:29:02.548Z,2.80
2018-12-27T04:31:33.560Z,2.80
2018-12-27T04:34:09.495Z,2.80
2018-12-27T04:36:37.078Z,2.70
2018-12-27T04:39:08.419Z,2.70
2018-12-27T04:41:43.575Z,2.80
2018-12-27T04:44:16.127Z,2.80
2018-12-27T04:46:46.911Z,2.80
2018-12-27T04:49:17.962Z,2.80
2018-12-27T04:51:48.482Z,2.80
2018-12-27T04:54:19.530Z,2.80
2018-12-27T04:56:51.149Z,2.80
2018-12-27T04:59:22.243Z,2.80
2018-12-27T05:01:53.509Z,2.70
2018-12-27T05:04:25.037Z,2.70
2018-12-27T05:06:55.903Z,2.70
2018-12-27T05:09:26.923Z,2.70
2018-12-27T05:11:57.767Z,2.70
2018-12-27T05:14:29.099Z,2.70
2018-12-27T05:16:59.872Z,2.70
2018-12-27T05:19:31.147Z,2.70
2018-12-27T05:22:01.943Z,2.70
2018-12-27T05:24:33.166Z,2.70
2018-12-27T05:27:04.166Z,2.70
2018-12-27T05:29:35.324Z,2.70
2018-12-27T05:32:06.323Z,2.70
2018-12-27T05:34:37.337Z,2.70
2018-12-27T05:37:07.983Z,2.70
2018-12-27T05:39:39.003Z,2.70
2018-12-27T05:42:10.284Z,2.80
2018-12-27T05:44:41.068Z,2.80
2018-12-27T05:47:12.112Z,2.80
2018-12-27T05:49:43.578Z,2.80
2018-12-27T05:52:14.574Z,2.80
2018-12-27T05:54:46.787Z,2.80
2018-12-27T05:57:17.926Z,2.80
2018-12-27T05:59:49.047Z,2.80
2018-12-27T06:02:19.577Z,2.90
2018-12-27T06:04:50.347Z,2.90
2018-12-27T06:07:21.122Z,2.90
2018-12-27T06:09:52.252Z,3.00
2018-12-27T06:12:23.563Z,3.00
2018-12-27T06:14:54.832Z,3.10
2018-12-27T06:17:28.159Z,3.10
2018-12-27T06:19:59.028Z,3.10
2018-12-27T06:22:30.032Z,3.10
2018-12-27T06:25:00.812Z,3.10
2018-12-27T06:27:32.123Z,3.10
2018-12-27T06:30:02.680Z,3.20
2018-12-27T06:32:33.217Z,3.20
2018-12-27T06:35:04.107Z,3.20
2018-12-27T06:37:34.878Z,3.20
2018-12-27T06:40:05.877Z,3.20
2018-12-27T06:42:36.635Z,3.20
2018-12-27T06:45:07.660Z,3.20
2018-12-27T06:47:38.969Z,3.20
2018-12-27T06:50:09.988Z,3.20
2018-12-27T06:52:40.802Z,3.20
2018-12-27T06:55:11.599Z,3.10
2018-12-27T06:57:42.448Z,3.10
2018-12-27T07:00:13.624Z,3.20
2018-12-27T07:02:44.154Z,3.20
2018-12-27T07:05:15.616Z,3.20
2018-12-27T07:07:49.504Z,3.20
2018-12-27T07:10:21.162Z,3.20
2018-12-27T07:12:52.741Z,3.10
2018-12-27T07:15:23.656Z,3.10
2018-12-27T07:17:54.615Z,3.20
2018-12-27T07:20:25.651Z,3.20
2018-12-27T07:22:56.423Z,3.20
2018-12-27T07:25:26.953Z,3.30
2018-12-27T07:27:57.540Z,3.30
2018-12-27T07:30:28.591Z,3.30
2018-12-27T07:32:59.118Z,3.30
2018-12-27T07:35:30.463Z,3.30
2018-12-27T07:38:01.483Z,3.20
2018-12-27T07:40:33.199Z,3.20
2018-12-27T07:43:04.859Z,3.10
2018-12-27T07:45:43.432Z,3.10
2018-12-27T07:48:14.071Z,3.20
2018-12-27T07:50:45.457Z,3.20
2018-12-27T07:53:16.084Z,3.20
2018-12-27T07:55:46.995Z,3.20
2018-12-27T07:58:17.790Z,3.30
2018-12-27T08:00:48.935Z,3.30
2018-12-27T08:03:19.492Z,3.30
2018-12-27T08:05:50.280Z,3.30
2018-12-27T08:08:21.389Z,3.30
2018-12-27T08:10:52.277Z,3.30
2018-12-27T08:24:42.741Z,3.20
2018-12-27T08:27:26.270Z,3.30
2018-12-27T08:37:59.010Z,3.30
2018-12-27T09:39:12.574Z,3.80
2018-12-27T10:05:33.604Z,4.00
2018-12-27T10:07:59.884Z,4.00
2018-12-27T10:10:30.431Z,4.10
2018-12-27T10:13:01.776Z,4.10
2018-12-27T10:15:32.572Z,4.10
2018-12-27T10:18:04.470Z,4.20
2018-12-27T10:20:36.051Z,4.20
2018-12-27T10:23:07.091Z,4.30
2018-12-27T10:25:37.716Z,4.30
2018-12-27T10:28:08.994Z,4.30
2018-12-27T10:30:40.030Z,4.30
2018-12-27T10:33:10.787Z,4.40
2018-12-27T10:35:42.228Z,4.40
2018-12-27T10:38:12.995Z,4.50
2018-12-27T10:40:44.055Z,4.60
2018-12-27T10:43:15.535Z,4.70
2018-12-27T10:45:47.155Z,4.70
2018-12-27T10:48:19.736Z,4.80
2018-12-27T10:50:53.079Z,4.80
2018-12-27T10:53:26.678Z,4.90
2018-12-27T10:56:01.682Z,4.90
2018-12-27T10:58:32.528Z,5.00
2018-12-27T11:01:04.473Z,5.00
2018-12-27T11:03:38.322Z,5.10
2018-12-27T11:06:21.555Z,5.10
2018-12-27T11:08:55.244Z,5.10
2018-12-27T11:11:27.046Z,5.20
2018-12-27T11:13:59.635Z,5.20
2018-12-27T11:16:30.471Z,5.20
2018-12-27T11:19:01.019Z,5.20
2018-12-27T11:21:36.217Z,5.20
2018-12-27T11:24:07.981Z,5.20
2018-12-27T11:26:40.819Z,5.20
2018-12-27T11:29:11.933Z,5.20
2018-12-27T11:31:46.513Z,5.20
2018-12-27T11:34:17.026Z,5.20
2018-12-27T11:36:47.854Z,5.30
2018-12-27T11:39:23.834Z,5.40
2018-12-27T11:41:54.688Z,5.40
2018-12-27T11:44:29.857Z,5.40
2018-12-27T11:47:03.240Z,5.50
2018-12-27T11:49:34.827Z,5.50
2018-12-27T11:52:05.868Z,5.60
2018-12-27T11:54:39.384Z,5.60
2018-12-27T11:57:09.994Z,5.60
2018-12-27T11:59:45.170Z,5.60
2018-12-27T12:02:22.824Z,5.60
2018-12-27T12:05:06.921Z,5.60
2018-12-27T12:07:47.557Z,5.60
2018-12-27T12:10:28.475Z,5.60
2018-12-27T12:13:15.573Z,5.60
2018-12-27T12:15:55.892Z,5.60
2018-12-27T12:18:39.185Z,5.50
2018-12-27T12:21:09.909Z,5.50
2018-12-27T12:23:41.028Z,5.60
2018-12-27T12:26:11.871Z,5.60
2018-12-27T12:28:43.665Z,5.60
2018-12-27T12:31:14.920Z,5.60
2018-12-27T12:33:48.728Z,5.70
2018-12-27T12:36:19.705Z,5.70
2018-12-27T12:38:55.308Z,5.80
2018-12-27T12:41:33.000Z,5.90
2018-12-27T12:44:05.669Z,5.90
2018-12-27T12:46:37.079Z,5.90
2018-12-27T12:49:11.523Z,5.90
2018-12-27T12:51:43.125Z,5.90
2018-12-27T12:54:15.279Z,5.90
2018-12-27T12:56:47.613Z,6.00
2018-12-27T12:59:18.768Z,6.00
2018-12-27T13:01:49.938Z,6.00
2018-12-27T13:04:21.143Z,6.00
2018-12-27T13:06:52.220Z,6.10
2018-12-27T13:09:23.987Z,6.10
2018-12-27T13:11:54.779Z,6.10
2018-12-27T13:14:25.355Z,6.10
2018-12-27T13:16:56.419Z,6.10
2018-12-27T13:19:27.347Z,6.20
2018-12-27T13:21:58.179Z,6.20
2018-12-27T13:24:28.951Z,6.20
2018-12-27T13:26:59.495Z,6.20
2018-12-27T13:29:31.035Z,6.30
2018-12-27T13:32:01.787Z,6.30
2018-12-27T13:34:32.880Z,6.30
2018-12-27T13:37:03.778Z,6.30
2018-12-27T13:39:34.697Z,6.30
2018-12-27T13:42:05.532Z,6.30
2018-12-27T13:44:36.299Z,6.30
2018-12-27T13:47:07.068Z,6.20
2018-12-27T13:49:38.311Z,6.10
2018-12-27T13:52:08.823Z,6.10
2018-12-27T13:54:39.600Z,6.10
2018-12-27T13:57:10.455Z,6.10
2018-12-27T13:59:41.466Z,6.10
2018-12-27T14:02:12.947Z,6.20
2018-12-27T14:04:44.015Z,6.20
2018-12-27T14:07:14.771Z,6.20
2018-12-27T14:09:45.552Z,6.10
2018-12-27T14:12:16.922Z,6.10
2018-12-27T14:14:47.700Z,6.10
2018-12-27T14:17:18.611Z,6.10
2018-12-27T14:19:49.471Z,6.10
2018-12-27T14:22:20.004Z,6.10
2018-12-27T14:24:57.670Z,6.10
2018-12-27T14:27:23.649Z,6.00
2018-12-27T14:29:55.563Z,6.00
2018-12-27T14:32:26.821Z,5.90
2018-12-27T14:34:57.681Z,5.80
2018-12-27T14:37:28.245Z,5.80
2018-12-27T14:39:59.020Z,5.90
2018-12-27T14:42:29.885Z,5.90
2018-12-27T14:45:00.995Z,5.90
2018-12-27T14:47:31.603Z,5.90
2018-12-27T14:50:02.531Z,5.90
2018-12-27T14:52:33.282Z,5.80
2018-12-27T14:55:04.288Z,5.80
2018-12-27T14:57:35.588Z,5.70
2018-12-27T15:00:07.962Z,5.70
2018-12-27T15:02:38.500Z,5.70
2018-12-27T15:05:09.344Z,5.60
2018-12-27T15:07:40.115Z,5.60
2018-12-27T15:10:10.908Z,5.60
2018-12-27T15:12:41.922Z,5.60
2018-12-27T15:15:13.008Z,5.60
2018-12-27T15:17:43.767Z,5.60
2018-12-27T15:20:14.562Z,5.60
2018-12-27T15:22:45.367Z,5.60
2018-12-27T15:25:16.141Z,5.50
2018-12-27T15:27:46.931Z,5.50
2018-12-27T15:30:18.068Z,5.50
2018-12-27T15:32:49.383Z,5.50
2018-12-27T15:35:20.154Z,5.50
2018-12-27T15:37:51.385Z,5.50
2018-12-27T15:40:22.297Z,5.50
2018-12-27T15:42:53.807Z,5.50
2018-12-27T15:45:24.875Z,5.50
2018-12-27T15:47:56.088Z,5.40
2018-12-27T15:50:26.920Z,5.40
2018-12-27T15:52:57.686Z,5.30
2018-12-27T15:55:29.127Z,5.30
2018-12-27T15:58:00.184Z,5.30
2018-12-27T16:00:31.501Z,5.30
2018-12-27T16:03:02.586Z,5.30
2018-12-27T16:05:35.378Z,5.30
2018-12-27T16:08:07.203Z,5.30
2018-12-27T16:10:39.030Z,5.20
2018-12-27T16:13:09.807Z,5.20
2018-12-27T16:15:40.738Z,5.20
2018-12-27T16:18:11.532Z,5.10
2018-12-27T16:20:42.335Z,5.10
2018-12-27T16:23:13.311Z,5.10
2018-12-27T16:25:44.563Z,5.10
2018-12-27T16:28:15.399Z,5.10
2018-12-27T16:30:46.333Z,5.00
2018-12-27T16:33:17.107Z,5.00
2018-12-27T16:35:47.963Z,4.90
2018-12-27T16:38:20.158Z,4.90
2018-12-27T16:40:50.683Z,4.90
2018-12-27T16:43:21.463Z,4.90
2018-12-27T16:45:52.471Z,4.90
2018-12-27T16:48:23.511Z,4.90
2018-12-27T16:50:54.283Z,4.80
2018-12-27T16:53:25.067Z,4.80
2018-12-27T16:55:55.659Z,4.80
2018-12-27T16:58:26.903Z,4.70
2018-12-27T17:00:57.431Z,4.70
2018-12-27T17:03:28.679Z,4.70
2018-12-27T17:05:59.436Z,4.70
2018-12-27T17:08:30.463Z,4.60
2018-12-27T17:11:00.996Z,4.60
2018-12-27T17:13:32.775Z,4.60
2018-12-27T17:16:03.373Z,4.50
2018-12-27T17:18:34.226Z,4.50
2018-12-27T17:21:04.831Z,4.50
2018-12-27T17:23:35.363Z,4.50
2018-12-27T17:26:06.035Z,4.40
2018-12-27T17:28:36.787Z,4.40
2018-12-27T17:31:10.820Z,4.40
2018-12-27T17:33:46.987Z,4.40
2018-12-27T17:36:18.461Z,4.30
2018-12-27T17:38:48.999Z,4.30
2018-12-27T17:41:19.527Z,4.30
2018-12-27T17:43:50.319Z,4.30
2018-12-27T17:46:21.546Z,4.30
2018-12-27T17:48:52.311Z,4.30
2018-12-27T17:51:23.319Z,4.30
2018-12-27T17:53:55.174Z,4.30
2018-12-27T17:56:25.975Z,4.30
2018-12-27T17:58:57.267Z,4.30
2018-12-27T18:01:28.314Z,4.30
2018-12-27T18:04:02.553Z,4.30
2018-12-27T18:06:33.432Z,4.30
2018-12-27T18:09:06.195Z,4.20
2018-12-27T18:11:37.239Z,4.20
2018-12-27T18:14:08.027Z,4.20
2018-12-27T18:16:38.542Z,4.20
2018-12-27T18:19:09.307Z,4.20
2018-12-27T18:21:40.418Z,4.20
2018-12-27T18:24:11.183Z,4.10
2018-12-27T18:26:42.119Z,4.10
2018-12-27T18:29:12.885Z,4.10
2018-12-27T18:31:43.967Z,4.10
2018-12-27T18:34:15.035Z,4.10
2018-12-27T18:36:46.563Z,4.10
2018-12-27T18:39:18.990Z,4.10
2018-12-27T18:41:49.836Z,4.00
2018-12-27T18:44:20.964Z,4.00
2018-12-27T18:46:52.539Z,4.00
2018-12-27T18:49:25.001Z,3.90
2018-12-27T18:51:56.035Z,3.80
2018-12-27T18:54:27.051Z,3.70
2018-12-27T18:56:58.075Z,3.70
2018-12-27T18:59:29.872Z,3.60
2018-12-27T19:02:00.819Z,3.60
2018-12-27T19:04:32.927Z,3.50
2018-12-27T19:07:03.692Z,3.50
2018-12-27T19:09:35.699Z,3.40
2018-12-27T19:12:42.118Z,3.40
2018-12-27T19:15:16.271Z,3.40
2018-12-27T19:18:03.371Z,3.40
2018-12-27T19:20:36.847Z,3.30
2018-12-27T19:23:19.059Z,3.30
2018-12-27T19:25:49.829Z,3.20
2018-12-27T19:28:20.607Z,3.20
2018-12-27T19:30:51.448Z,3.20
2018-12-27T19:33:22.141Z,3.10
2018-12-27T19:35:52.916Z,3.10
2018-12-27T19:38:24.355Z,3.10
2018-12-27T19:40:56.364Z,3.00
2018-12-27T19:43:27.706Z,3.00
2018-12-27T19:46:00.160Z,3.00
2018-12-27T19:48:31.236Z,2.90
2018-12-27T19:51:02.087Z,2.90
2018-12-27T19:53:32.984Z,2.80
2018-12-27T19:56:04.045Z,2.70
2018-12-27T19:58:34.638Z,2.70
2018-12-27T20:01:05.506Z,2.60
2018-12-27T20:03:37.051Z,2.60
2018-12-27T20:06:08.083Z,2.60
2018-12-27T20:08:39.279Z,2.50
2018-12-27T20:11:10.719Z,2.50
2018-12-27T20:13:42.475Z,2.60
2018-12-27T20:16:13.556Z,2.60
2018-12-27T20:18:44.583Z,2.50
2018-12-27T20:21:15.500Z,2.50
2018-12-27T20:23:46.335Z,2.40
2018-12-27T20:26:16.971Z,2.40
2018-12-27T20:28:48.139Z,2.40
2018-12-27T20:31:19.635Z,2.40
2018-12-27T20:33:50.790Z,2.40
2018-12-27T20:36:21.640Z,2.30
2018-12-27T20:38:52.680Z,2.30
2018-12-27T20:41:23.627Z,2.20
2018-12-27T20:43:54.469Z,2.20
2018-12-27T20:46:25.497Z,2.10
2018-12-27T20:48:56.506Z,2.10
2018-12-27T20:51:27.556Z,2.10
2018-12-27T20:53:58.796Z,2.10
2018-12-27T20:56:29.880Z,2.10
2018-12-27T20:59:00.664Z,2.10
2018-12-27T21:01:31.435Z,2.10
2018-12-27T21:04:02.795Z,2.10
2018-12-27T21:06:34.382Z,2.10
2018-12-27T21:09:06.953Z,2.00
2018-12-27T21:11:37.519Z,2.00
2018-12-27T21:14:08.370Z,2.00
2018-12-27T21:16:39.304Z,2.00
2018-12-27T21:19:10.535Z,2.00
2018-12-27T21:21:41.624Z,1.90
2018-12-27T21:24:14.352Z,1.90
2018-12-27T21:26:44.980Z,1.90
2018-12-27T21:29:16.620Z,1.90
2018-12-27T21:31:47.571Z,1.80
2018-12-27T21:34:18.612Z,1.70
2018-12-27T21:36:49.447Z,1.70
2018-12-27T21:39:20.216Z,1.70
2018-12-27T21:41:51.283Z,1.70
2018-12-27T21:44:22.055Z,1.70
2018-12-27T21:46:53.339Z,1.70
2018-12-27T21:49:24.344Z,1.70
2018-12-27T21:51:55.339Z,1.60
2018-12-27T21:54:26.815Z,1.60
2018-12-27T21:56:57.591Z,1.50
2018-12-27T21:59:28.386Z,1.50
2018-12-27T22:01:59.139Z,1.60
2018-12-27T22:04:29.983Z,1.50
2018-12-27T22:07:00.902Z,1.70
2018-12-27T22:09:31.962Z,1.50
2018-12-27T22:12:04.356Z,1.50
2018-12-27T22:14:35.452Z,1.40
2018-12-27T22:17:07.843Z,1.40
2018-12-27T22:19:38.369Z,1.40
2018-12-27T22:22:09.160Z,1.40
2018-12-27T22:24:40.023Z,1.40
2018-12-27T22:27:11.347Z,1.30
2018-12-27T22:29:42.803Z,1.30
2018-12-27T22:32:13.659Z,1.30
2018-12-27T22:34:44.707Z,1.30
2018-12-27T22:37:15.484Z,1.30
2018-12-27T22:39:46.739Z,1.30
2018-12-27T22:42:17.981Z,1.30
2018-12-27T22:44:48.691Z,1.30
2018-12-27T22:47:19.860Z,1.30
2018-12-27T22:49:50.839Z,1.30
2018-12-27T22:52:23.105Z,1.30
2018-12-27T22:54:54.327Z,1.20
2018-12-27T22:57:25.612Z,1.20
2018-12-27T22:59:56.123Z,1.20
2018-12-27T23:02:26.902Z,1.20
2018-12-27T23:04:58.747Z,1.20
2018-12-27T23:07:30.167Z,1.20
2018-12-27T23:10:00.753Z,1.10
2018-12-27T23:12:32.679Z,1.10
2018-12-27T23:15:03.270Z,1.10
2018-12-27T23:17:34.107Z,1.10
2018-12-27T23:20:05.503Z,1.00
2018-12-27T23:22:36.031Z,1.00
2018-12-27T23:25:06.972Z,1.10
2018-12-27T23:27:38.791Z,1.00
2018-12-27T23:30:09.699Z,1.00
2018-12-27T23:32:40.612Z,1.00
2018-12-27T23:35:11.612Z,1.00
2018-12-27T23:37:42.402Z,0.90
2018-12-27T23:40:16.236Z,0.90
2018-12-27T23:42:48.855Z,0.80
2018-12-27T23:45:19.875Z,0.80
2018-12-27T23:47:50.671Z,0.80
2018-12-27T23:50:21.178Z,0.80
2018-12-27T23:52:51.959Z,0.70
2018-12-27T23:55:23.123Z,0.70
2018-12-27T23:57:54.656Z,0.80
